Time,TemperatureF,DewpointF,PressureIn,WindDirection,WindDirectionDegrees,WindSpeedMPH,WindSpeedGustMPH,Humidity,HourlyPrecipIn,Conditions,Clouds,dailyrainin,SoftwareType,DateUTC
2013-07-21 00:02:00,65.2,54.7,30.02,ENE,68,1.1,5.4,69,0.00,,,0.00,WUHU216HW,2013-07-20 23:02:00,
2013-07-21 00:07:00,65.2,54.7,30.01,East,90,1.1,5.4,69,0.00,,,0.00,WUHU216HW,2013-07-20 23:07:00,
2013-07-21 00:12:00,65.0,54.6,30.01,NE,45,2.2,3.6,69,0.00,,,0.00,WUHU216HW,2013-07-20 23:12:00,
2013-07-21 00:17:00,64.8,54.9,30.01,ESE,113,4.7,4.7,70,0.00,,,0.00,WUHU216HW,2013-07-20 23:17:00,
2013-07-21 00:22:00,64.6,54.7,30.01,NE,45,1.1,4.7,70,0.00,,,0.00,WUHU216HW,2013-07-20 23:22:00,
2013-07-21 00:27:00,64.4,54.5,30.01,North,0,2.9,5.6,70,0.00,,,0.00,WUHU216HW,2013-07-20 23:27:00,
2013-07-21 00:32:00,64.4,54.5,30.01,ENE,68,2.5,5.6,70,0.00,,,0.00,WUHU216HW,2013-07-20 23:32:00,
2013-07-21 00:38:00,64.3,54.4,30.01,ENE,68,2.5,4.9,70,0.00,,,0.00,WUHU216HW,2013-07-20 23:38:00,
2013-07-21 00:43:00,64.3,54.4,30.01,ENE,68,0.2,4.9,70,0.00,,,0.00,WUHU216HW,2013-07-20 23:43:00,
2013-07-21 00:48:00,64.3,54.4,30.01,NNE,23,1.1,3.1,70,0.00,,,0.00,WUHU216HW,2013-07-20 23:48:00,
2013-07-21 00:53:00,64.3,54.4,30.01,East,90,1.1,4.0,70,0.00,,,0.00,WUHU216HW,2013-07-20 23:53:00,
2013-07-21 00:58:00,64.1,54.2,30.01,NNE,23,3.6,3.6,70,0.00,,,0.00,WUHU216HW,2013-07-20 23:58:00,
2013-07-21 01:04:00,64.1,54.5,30.01,ENE,68,2.5,3.6,71,0.00,,,0.00,WUHU216HW,2013-07-21 00:04:00,
2013-07-21 01:09:00,64.1,54.5,30.01,East,90,2.5,3.6,71,0.00,,,0.00,WUHU216HW,2013-07-21 00:09:00,
2013-07-21 01:14:00,64.1,54.5,30.01,NNE,23,2.5,3.6,71,0.00,,,0.00,WUHU216HW,2013-07-21 00:14:00,
2013-07-21 01:19:00,64.1,54.5,30.01,North,0,0.4,3.4,71,0.00,,,0.00,WUHU216HW,2013-07-21 00:19:00,
2013-07-21 01:24:00,63.9,54.4,30.01,North,0,4.7,4.7,71,0.00,,,0.00,WUHU216HW,2013-07-21 00:24:00,
2013-07-21 01:29:00,63.9,54.0,30.02,ESE,113,0.9,4.7,70,0.00,,,0.00,WUHU216HW,2013-07-21 00:29:00,
2013-07-21 01:34:00,63.9,54.0,30.02,NE,45,1.3,4.3,70,0.00,,,0.00,WUHU216HW,2013-07-21 00:34:00,
2013-07-21 01:39:00,63.9,54.0,30.02,NNE,23,1.3,4.0,70,0.00,,,0.00,WUHU216HW,2013-07-21 00:39:00,
2013-07-21 01:44:00,63.7,53.8,30.01,ENE,68,2.2,6.0,70,0.00,,,0.00,WUHU216HW,2013-07-21 00:44:00,
2013-07-21 01:49:00,63.7,53.8,30.01,ENE,68,2.2,6.0,70,0.00,,,0.00,WUHU216HW,2013-07-21 00:49:00,
2013-07-21 01:55:00,63.7,53.8,30.01,East,90,5.8,6.7,70,0.00,,,0.00,WUHU216HW,2013-07-21 00:55:00,
2013-07-21 02:00:00,63.5,53.6,30.01,NNE,23,1.3,6.7,70,0.00,,,0.00,WUHU216HW,2013-07-21 01:00:00,
2013-07-21 02:05:00,63.5,53.6,30.02,ENE,68,0.4,6.5,70,0.00,,,0.00,WUHU216HW,2013-07-21 01:05:00,
2013-07-21 02:10:00,63.4,53.5,30.01,NE,45,2.5,6.5,70,0.00,,,0.00,WUHU216HW,2013-07-21 01:10:00,
2013-07-21 02:15:00,63.4,53.5,30.01,ESE,113,0.7,4.9,70,0.00,,,0.00,WUHU216HW,2013-07-21 01:15:00,
2013-07-21 02:20:00,63.4,53.8,30.00,NE,45,1.1,4.7,71,0.00,,,0.00,WUHU216HW,2013-07-21 01:20:00,
2013-07-21 02:25:00,63.4,53.8,30.01,NNE,23,0.2,4.7,71,0.00,,,0.00,WUHU216HW,2013-07-21 01:25:00,
2013-07-21 02:30:00,63.4,53.8,30.01,NNE,23,1.1,1.8,71,0.00,,,0.00,WUHU216HW,2013-07-21 01:30:00,
2013-07-21 02:35:00,63.4,53.8,30.00,ENE,68,0.0,3.6,71,0.00,,,0.00,WUHU216HW,2013-07-21 01:35:00,
2013-07-21 02:41:00,63.4,53.8,30.00,ENE,68,0.7,3.6,71,0.00,,,0.00,WUHU216HW,2013-07-21 01:41:00,
2013-07-21 02:46:00,63.4,53.8,29.99,ENE,68,1.8,4.9,71,0.00,,,0.00,WUHU216HW,2013-07-21 01:46:00,
2013-07-21 02:51:00,63.4,53.8,29.99,NNE,23,0.7,4.9,71,0.00,,,0.00,WUHU216HW,2013-07-21 01:51:00,
2013-07-21 02:56:00,63.4,54.2,29.99,North,0,0.2,2.7,72,0.00,,,0.00,WUHU216HW,2013-07-21 01:56:00,
2013-07-21 03:01:00,63.4,54.2,29.99,SE,135,0.2,2.7,72,0.00,,,0.00,WUHU216HW,2013-07-21 02:01:00,
2013-07-21 03:06:00,63.4,54.2,29.99,East,90,0.0,1.1,72,0.00,,,0.00,WUHU216HW,2013-07-21 02:06:00,
2013-07-21 03:11:00,63.4,54.2,29.99,East,90,0.4,1.1,72,0.00,,,0.00,WUHU216HW,2013-07-21 02:11:00,
2013-07-21 03:16:00,63.4,54.2,29.99,ESE,113,0.2,0.9,72,0.00,,,0.00,WUHU216HW,2013-07-21 02:16:00,
2013-07-21 03:22:00,63.2,54.0,29.99,ESE,113,1.1,1.3,72,0.00,,,0.00,WUHU216HW,2013-07-21 02:22:00,
2013-07-21 03:27:00,63.2,54.4,29.99,ESE,113,0.0,1.3,73,0.00,,,0.00,WUHU216HW,2013-07-21 02:27:00,
2013-07-21 03:32:00,63.2,54.4,29.99,ENE,68,0.0,1.3,73,0.00,,,0.00,WUHU216HW,2013-07-21 02:32:00,
2013-07-21 03:37:00,63.0,54.2,29.99,ENE,68,0.0,1.6,73,0.00,,,0.00,WUHU216HW,2013-07-21 02:37:00,
2013-07-21 03:42:00,63.0,54.2,29.98,ESE,113,0.2,1.8,73,0.00,,,0.00,WUHU216HW,2013-07-21 02:42:00,
2013-07-21 03:47:00,63.0,54.2,29.98,ENE,68,0.4,1.8,73,0.00,,,0.00,WUHU216HW,2013-07-21 02:47:00,
2013-07-21 03:52:00,63.0,54.5,29.98,ENE,68,0.0,1.3,74,0.00,,,0.00,WUHU216HW,2013-07-21 02:52:00,
2013-07-21 03:57:00,63.0,54.5,29.98,WNW,293,0.4,1.3,74,0.00,,,0.00,WUHU216HW,2013-07-21 02:57:00,
2013-07-21 04:02:00,63.0,54.5,29.98,NW,315,0.2,1.3,74,0.00,,,0.00,WUHU216HW,2013-07-21 03:02:00,
2013-07-21 04:07:00,62.8,54.4,29.98,North,0,0.0,1.3,74,0.00,,,0.00,WUHU216HW,2013-07-21 03:07:00,
2013-07-21 04:13:00,62.8,54.4,29.98,SE,135,0.4,1.3,74,0.00,,,0.00,WUHU216HW,2013-07-21 03:13:00,
2013-07-21 04:18:00,62.8,54.4,29.97,South,180,0.2,0.9,74,0.00,,,0.00,WUHU216HW,2013-07-21 03:18:00,
2013-07-21 04:23:00,62.8,54.7,29.97,East,90,0.0,0.9,75,0.00,,,0.00,WUHU216HW,2013-07-21 03:23:00,
2013-07-21 04:28:00,62.8,54.7,29.97,ENE,68,0.0,1.8,75,0.00,,,0.00,WUHU216HW,2013-07-21 03:28:00,
2013-07-21 04:33:00,62.6,54.2,29.97,ENE,68,0.4,1.8,74,0.00,,,0.00,WUHU216HW,2013-07-21 03:33:00,
2013-07-21 04:38:00,62.8,54.7,29.97,East,90,0.2,1.8,75,0.00,,,0.00,WUHU216HW,2013-07-21 03:38:00,
2013-07-21 04:43:00,62.8,54.7,29.97,WSW,248,0.2,1.8,75,0.00,,,0.00,WUHU216HW,2013-07-21 03:43:00,
2013-07-21 04:48:00,62.8,55.1,29.97,ENE,68,0.2,0.7,76,0.00,,,0.00,WUHU216HW,2013-07-21 03:48:00,
2013-07-21 04:53:00,62.6,54.9,29.97,NE,45,0.2,1.1,76,0.00,,,0.00,WUHU216HW,2013-07-21 03:53:00,
2013-07-21 04:58:00,62.6,54.9,29.97,East,90,0.0,1.1,76,0.00,,,0.00,WUHU216HW,2013-07-21 03:58:00,
2013-07-21 05:01:00,62.6,54.9,29.97,ENE,68,1.6,1.6,76,0.00,,,0.00,WUHU216HW,2013-07-21 04:01:00,
2013-07-21 05:06:00,62.6,54.9,29.97,WNW,293,0.9,2.0,76,0.00,,,0.00,WUHU216HW,2013-07-21 04:06:00,
2013-07-21 05:11:00,62.6,55.3,29.97,ENE,68,0.9,2.0,77,0.00,,,0.00,WUHU216HW,2013-07-21 04:11:00,
2013-07-21 05:16:00,62.6,55.3,29.97,SE,135,0.2,1.8,77,0.00,,,0.00,WUHU216HW,2013-07-21 04:16:00,
2013-07-21 05:21:00,62.6,55.3,29.97,ESE,113,1.1,1.8,77,0.00,,,0.00,WUHU216HW,2013-07-21 04:21:00,
2013-07-21 05:26:00,62.6,55.3,29.97,East,90,0.2,1.8,77,0.00,,,0.00,WUHU216HW,2013-07-21 04:26:00,
2013-07-21 05:31:00,62.6,55.6,29.97,ENE,68,1.8,1.8,78,0.00,,,0.00,WUHU216HW,2013-07-21 04:31:00,
2013-07-21 05:36:00,62.6,55.6,29.97,East,90,0.2,1.8,78,0.00,,,0.00,WUHU216HW,2013-07-21 04:36:00,
2013-07-21 05:41:00,62.6,56.0,29.97,ESE,113,0.4,1.8,79,0.00,,,0.00,WUHU216HW,2013-07-21 04:41:00,
2013-07-21 05:46:00,62.6,56.0,29.97,ENE,68,1.1,1.8,79,0.00,,,0.00,WUHU216HW,2013-07-21 04:46:00,
2013-07-21 05:51:00,62.6,56.0,29.97,WNW,293,0.0,1.8,79,0.00,,,0.00,WUHU216HW,2013-07-21 04:51:00,
2013-07-21 05:56:00,62.6,56.0,29.97,NW,315,0.0,1.1,79,0.00,,,0.00,WUHU216HW,2013-07-21 04:56:00,
2013-07-21 06:01:00,62.6,56.0,29.97,SE,135,0.2,1.1,79,0.00,,,0.00,WUHU216HW,2013-07-21 05:01:00,
2013-07-21 06:06:00,62.6,56.3,29.97,ESE,113,0.0,1.1,80,0.00,,,0.00,WUHU216HW,2013-07-21 05:06:00,
2013-07-21 06:11:00,62.6,56.3,29.97,North,0,0.0,1.1,80,0.00,,,0.00,WUHU216HW,2013-07-21 05:11:00,
2013-07-21 06:16:00,62.6,56.3,29.97,ENE,68,0.2,1.8,80,0.00,,,0.00,WUHU216HW,2013-07-21 05:16:00,
2013-07-21 06:21:00,62.6,56.3,29.97,NW,315,0.4,1.8,80,0.00,,,0.00,WUHU216HW,2013-07-21 05:21:00,
2013-07-21 06:26:00,62.6,56.3,29.97,NW,315,0.2,1.8,80,0.00,,,0.00,WUHU216HW,2013-07-21 05:26:00,
2013-07-21 06:31:00,62.8,56.5,29.97,East,90,0.2,1.8,80,0.00,,,0.00,WUHU216HW,2013-07-21 05:31:00,
2013-07-21 06:36:00,62.8,56.5,29.97,ESE,113,0.9,0.9,80,0.00,,,0.00,WUHU216HW,2013-07-21 05:36:00,
2013-07-21 06:41:00,63.0,56.7,29.97,ESE,113,0.0,0.9,80,0.00,,,0.00,WUHU216HW,2013-07-21 05:41:00,
2013-07-21 06:46:00,63.0,57.1,29.97,ESE,113,0.0,1.6,81,0.00,,,0.00,WUHU216HW,2013-07-21 05:46:00,
2013-07-21 06:51:00,63.0,56.7,29.97,NE,45,0.4,2.0,80,0.00,,,0.00,WUHU216HW,2013-07-21 05:51:00,
2013-07-21 06:56:00,63.0,57.1,29.97,ENE,68,0.7,2.0,81,0.00,,,0.00,WUHU216HW,2013-07-21 05:56:00,
2013-07-21 07:01:00,63.0,57.1,29.97,ENE,68,2.2,2.7,81,0.00,,,0.00,WUHU216HW,2013-07-21 06:01:00,
2013-07-21 07:06:00,63.0,57.1,29.97,NE,45,0.4,2.7,81,0.00,,,0.00,WUHU216HW,2013-07-21 06:06:00,
2013-07-21 07:11:00,63.2,57.3,29.97,NE,45,1.1,2.2,81,0.00,,,0.00,WUHU216HW,2013-07-21 06:11:00,
2013-07-21 07:16:00,63.2,56.9,29.97,ENE,68,0.9,2.9,80,0.00,,,0.00,WUHU216HW,2013-07-21 06:16:00,
2013-07-21 07:21:00,63.2,57.3,29.98,ENE,68,2.9,2.9,81,0.00,,,0.00,WUHU216HW,2013-07-21 06:21:00,
2013-07-21 07:26:00,63.2,57.3,29.98,East,90,0.9,4.0,81,0.00,,,0.00,WUHU216HW,2013-07-21 06:26:00,
2013-07-21 07:31:00,63.2,57.3,29.97,East,90,0.4,4.0,81,0.00,,,0.00,WUHU216HW,2013-07-21 06:31:00,
2013-07-21 07:36:00,63.4,57.4,29.98,East,90,1.1,1.3,81,0.00,,,0.00,WUHU216HW,2013-07-21 06:36:00,
2013-07-21 07:41:00,63.4,57.4,29.97,SE,135,1.1,2.5,81,0.00,,,0.00,WUHU216HW,2013-07-21 06:41:00,
2013-07-21 07:46:00,63.5,57.6,29.97,NNE,23,1.8,2.5,81,0.00,,,0.00,WUHU216HW,2013-07-21 06:46:00,
2013-07-21 07:51:00,63.7,57.8,29.97,ESE,113,0.4,1.8,81,0.00,,,0.00,WUHU216HW,2013-07-21 06:51:00,
2013-07-21 07:56:00,63.5,57.6,29.97,ENE,68,0.4,2.2,81,0.00,,,0.00,WUHU216HW,2013-07-21 06:56:00,
2013-07-21 08:01:00,63.7,57.8,29.97,ENE,68,0.2,2.2,81,0.00,,,0.00,WUHU216HW,2013-07-21 07:01:00,
2013-07-21 08:06:00,63.7,57.8,29.97,ENE,68,1.1,2.2,81,0.00,,,0.00,WUHU216HW,2013-07-21 07:06:00,
2013-07-21 08:11:00,63.7,57.4,29.97,NNE,23,0.0,3.1,80,0.00,,,0.00,WUHU216HW,2013-07-21 07:11:00,
2013-07-21 08:16:00,63.7,57.8,29.97,East,90,1.1,3.1,81,0.00,,,0.00,WUHU216HW,2013-07-21 07:16:00,
2013-07-21 08:21:00,63.9,57.6,29.97,ESE,113,0.4,3.1,80,0.00,,,0.00,WUHU216HW,2013-07-21 07:21:00,
2013-07-21 08:26:00,64.1,57.8,29.96,ENE,68,0.9,3.1,80,0.00,,,0.00,WUHU216HW,2013-07-21 07:26:00,
2013-07-21 08:31:00,64.3,58.3,29.96,ENE,68,1.3,2.0,81,0.00,,,0.00,WUHU216HW,2013-07-21 07:31:00,
2013-07-21 08:36:00,64.4,58.5,29.96,ESE,113,0.4,2.0,81,0.00,,,0.00,WUHU216HW,2013-07-21 07:36:00,
2013-07-21 08:41:00,64.4,58.1,29.96,NE,45,0.9,2.5,80,0.00,,,0.00,WUHU216HW,2013-07-21 07:41:00,
2013-07-21 08:46:00,64.6,58.3,29.96,NNW,338,0.4,2.5,80,0.00,,,0.00,WUHU216HW,2013-07-21 07:46:00,
2013-07-21 08:51:00,64.6,58.3,29.96,East,90,0.4,1.3,80,0.00,,,0.00,WUHU216HW,2013-07-21 07:51:00,
2013-07-21 08:56:00,64.8,58.5,29.97,WNW,293,0.4,1.3,80,0.00,,,0.00,WUHU216HW,2013-07-21 07:56:00,
2013-07-21 09:01:00,64.8,58.5,29.97,ESE,113,1.8,2.2,80,0.00,,,0.00,WUHU216HW,2013-07-21 08:01:00,
2013-07-21 09:06:00,65.0,58.7,29.96,ENE,68,0.2,2.2,80,0.00,,,0.00,WUHU216HW,2013-07-21 08:06:00,
2013-07-21 09:11:00,65.2,58.9,29.96,ENE,68,0.9,3.8,80,0.00,,,0.00,WUHU216HW,2013-07-21 08:11:00,
2013-07-21 09:16:00,65.3,58.7,29.96,NNE,23,1.6,3.8,79,0.00,,,0.00,WUHU216HW,2013-07-21 08:16:00,
2013-07-21 09:21:00,65.5,58.9,29.96,ESE,113,2.9,3.8,79,0.00,,,0.00,WUHU216HW,2013-07-21 08:21:00,
2013-07-21 09:26:00,65.5,58.9,29.96,ENE,68,1.6,3.8,79,0.00,,,0.00,WUHU216HW,2013-07-21 08:26:00,
2013-07-21 09:31:00,65.5,58.9,29.96,ESE,113,1.1,4.3,79,0.00,,,0.00,WUHU216HW,2013-07-21 08:31:00,
2013-07-21 09:36:00,65.5,58.9,29.96,ENE,68,1.1,4.3,79,0.00,,,0.00,WUHU216HW,2013-07-21 08:36:00,
2013-07-21 09:41:00,65.7,59.1,29.96,NNW,338,1.8,3.8,79,0.00,,,0.00,WUHU216HW,2013-07-21 08:41:00,
2013-07-21 09:46:00,65.7,59.1,29.96,East,90,1.8,4.0,79,0.00,,,0.00,WUHU216HW,2013-07-21 08:46:00,
2013-07-21 09:51:00,65.9,59.2,29.96,NNE,23,0.2,4.0,79,0.00,,,0.00,WUHU216HW,2013-07-21 08:51:00,
2013-07-21 09:56:00,65.9,58.9,29.96,ENE,68,3.4,3.8,78,0.00,,,0.00,WUHU216HW,2013-07-21 08:56:00,
2013-07-21 10:01:00,65.9,59.2,29.96,NE,45,1.1,3.4,79,0.00,,,0.00,WUHU216HW,2013-07-21 09:01:00,
2013-07-21 10:06:00,65.9,59.2,29.96,North,0,2.2,4.7,79,0.00,,,0.00,WUHU216HW,2013-07-21 09:06:00,
2013-07-21 10:11:00,66.1,59.1,29.96,NNE,23,0.7,7.2,78,0.00,,,0.00,WUHU216HW,2013-07-21 09:11:00,
2013-07-21 10:16:00,66.2,59.2,29.96,East,90,1.8,7.2,78,0.00,,,0.00,WUHU216HW,2013-07-21 09:16:00,
2013-07-21 10:21:00,66.2,59.2,29.96,NE,45,2.9,4.5,78,0.00,,,0.00,WUHU216HW,2013-07-21 09:21:00,
2013-07-21 10:26:00,66.1,59.1,29.96,ENE,68,2.0,5.1,78,0.00,,,0.00,WUHU216HW,2013-07-21 09:26:00,
2013-07-21 10:31:00,66.1,59.1,29.96,NE,45,2.5,5.4,78,0.00,,,0.00,WUHU216HW,2013-07-21 09:31:00,
2013-07-21 10:36:00,66.2,59.2,29.96,ENE,68,2.2,5.4,78,0.00,,,0.00,WUHU216HW,2013-07-21 09:36:00,
2013-07-21 10:41:00,66.2,59.2,29.96,NNE,23,1.8,5.8,78,0.00,,,0.00,WUHU216HW,2013-07-21 09:41:00,
2013-07-21 10:46:00,66.2,59.2,29.96,ENE,68,2.5,5.8,78,0.00,,,0.00,WUHU216HW,2013-07-21 09:46:00,
2013-07-21 10:51:00,66.4,59.4,29.96,ENE,68,1.8,5.1,78,0.00,,,0.00,WUHU216HW,2013-07-21 09:51:00,
2013-07-21 10:56:00,66.6,59.1,29.96,East,90,4.0,5.1,77,0.00,,,0.00,WUHU216HW,2013-07-21 09:56:00,
2013-07-21 11:01:00,66.6,59.1,29.96,ESE,113,0.9,4.7,77,0.00,,,0.00,WUHU216HW,2013-07-21 10:01:00,
2013-07-21 11:06:00,66.6,59.1,29.96,NE,45,1.8,4.7,77,0.00,,,0.00,WUHU216HW,2013-07-21 10:06:00,
2013-07-21 11:11:00,66.4,59.0,29.96,ENE,68,1.1,2.5,77,0.00,,,0.00,WUHU216HW,2013-07-21 10:11:00,
2013-07-21 11:16:00,66.6,59.1,29.96,East,90,2.2,3.4,77,0.00,,,0.00,WUHU216HW,2013-07-21 10:16:00,
2013-07-21 11:21:00,66.6,59.1,29.96,ENE,68,0.4,3.4,77,0.00,,,0.00,WUHU216HW,2013-07-21 10:21:00,
2013-07-21 11:26:00,66.8,59.0,29.96,NE,45,2.9,3.4,76,0.00,,,0.00,WUHU216HW,2013-07-21 10:26:00,
2013-07-21 11:31:00,67.0,59.5,29.96,East,90,0.2,3.6,77,0.00,,,0.00,WUHU216HW,2013-07-21 10:31:00,
2013-07-21 11:36:00,67.3,59.1,29.96,East,90,2.5,3.6,75,0.00,,,0.00,WUHU216HW,2013-07-21 10:36:00,
2013-07-21 11:41:00,67.5,59.3,29.96,NE,45,4.5,4.5,75,0.00,,,0.00,WUHU216HW,2013-07-21 10:41:00,
2013-07-21 11:46:00,67.9,59.3,29.96,NE,45,3.1,4.5,74,0.00,,,0.00,WUHU216HW,2013-07-21 10:46:00,
2013-07-21 11:51:00,68.4,59.8,29.96,ENE,68,1.8,4.5,74,0.00,,,0.00,WUHU216HW,2013-07-21 10:51:00,
2013-07-21 11:56:00,68.6,59.6,29.95,NE,45,0.9,3.1,73,0.00,,,0.00,WUHU216HW,2013-07-21 10:56:00,
2013-07-21 12:01:00,68.8,59.4,29.95,East,90,3.4,4.7,72,0.00,,,0.00,WUHU216HW,2013-07-21 11:01:00,
2013-07-21 12:06:00,68.9,59.1,29.95,East,90,2.0,4.7,71,0.00,,,0.00,WUHU216HW,2013-07-21 11:06:00,
2013-07-21 12:11:00,69.1,59.3,29.95,ENE,68,0.9,4.0,71,0.00,,,0.00,WUHU216HW,2013-07-21 11:11:00,
2013-07-21 12:16:00,69.5,59.7,29.95,NNE,23,2.9,3.6,71,0.00,,,0.00,WUHU216HW,2013-07-21 11:16:00,
2013-07-21 12:43:00,71.6,60.1,29.95,ENE,68,4.0,4.7,67,0.00,,,0.00,WUHU216HW,2013-07-21 11:43:00,
2013-07-21 12:49:00,72.5,60.0,29.95,NE,45,3.4,5.4,65,0.00,,,0.00,WUHU216HW,2013-07-21 11:49:00,
2013-07-21 12:54:00,72.4,60.0,29.94,NE,45,1.3,5.4,65,0.00,,,0.00,WUHU216HW,2013-07-21 11:54:00,
2013-07-21 12:58:00,72.5,60.5,29.94,NE,45,2.7,3.8,66,0.00,,,0.00,WUHU216HW,2013-07-21 11:58:00,
2013-07-21 13:03:00,72.7,60.2,29.94,ENE,68,1.8,3.4,65,0.00,,,0.00,WUHU216HW,2013-07-21 12:03:00,
2013-07-21 13:08:00,72.7,60.2,29.94,WNW,293,0.0,3.1,65,0.00,,,0.00,WUHU216HW,2013-07-21 12:08:00,
2013-07-21 13:13:00,72.9,60.4,29.94,WSW,248,0.7,3.1,65,0.00,,,0.00,WUHU216HW,2013-07-21 12:13:00,
2013-07-21 13:18:00,72.7,60.2,29.94,SE,135,1.6,2.9,65,0.00,,,0.00,WUHU216HW,2013-07-21 12:18:00,
2013-07-21 13:23:00,72.9,59.9,29.94,ENE,68,0.9,2.9,64,0.00,,,0.00,WUHU216HW,2013-07-21 12:23:00,
2013-07-21 13:28:00,73.1,60.1,29.94,ENE,68,0.9,2.2,64,0.00,,,0.00,WUHU216HW,2013-07-21 12:28:00,
2013-07-21 13:33:00,73.3,59.9,29.93,ESE,113,0.7,4.0,63,0.00,,,0.00,WUHU216HW,2013-07-21 12:33:00,
2013-07-21 13:39:00,73.4,60.0,29.94,ENE,68,4.5,5.4,63,0.00,,,0.00,WUHU216HW,2013-07-21 12:39:00,
2013-07-21 13:44:00,73.8,60.0,29.93,West,270,1.3,5.4,62,0.00,,,0.00,WUHU216HW,2013-07-21 12:44:00,
2013-07-21 13:49:00,74.2,59.9,29.93,ENE,68,4.0,4.9,61,0.00,,,0.00,WUHU216HW,2013-07-21 12:49:00,
2013-07-21 13:54:00,74.5,60.2,29.93,North,0,0.9,5.4,61,0.00,,,0.00,WUHU216HW,2013-07-21 12:54:00,
2013-07-21 13:59:00,74.7,59.9,29.93,ENE,68,5.4,5.4,60,0.00,,,0.00,WUHU216HW,2013-07-21 12:59:00,
2013-07-21 14:04:00,74.7,59.9,29.93,ENE,68,1.1,5.4,60,0.00,,,0.00,WUHU216HW,2013-07-21 13:04:00,
2013-07-21 14:08:00,74.9,60.6,29.93,ENE,68,1.8,4.9,61,0.00,,,0.00,WUHU216HW,2013-07-21 13:08:00,
2013-07-21 14:13:00,75.2,60.9,29.93,ENE,68,1.6,3.1,61,0.00,,,0.00,WUHU216HW,2013-07-21 13:13:00,
2013-07-21 14:18:00,75.2,60.5,29.93,East,90,1.1,3.4,60,0.00,,,0.00,WUHU216HW,2013-07-21 13:18:00,
2013-07-21 14:23:00,75.6,59.8,29.93,ENE,68,0.9,5.1,58,0.00,,,0.00,WUHU216HW,2013-07-21 13:23:00,
2013-07-21 14:28:00,76.0,60.1,29.92,NNW,338,0.2,5.1,58,0.00,,,0.00,WUHU216HW,2013-07-21 13:28:00,
2013-07-21 14:33:00,76.3,60.5,29.92,SE,135,1.3,4.3,58,0.00,,,0.00,WUHU216HW,2013-07-21 13:33:00,
2013-07-21 14:38:00,76.7,60.3,29.92,ENE,68,1.1,2.5,57,0.00,,,0.00,WUHU216HW,2013-07-21 13:38:00,
2013-07-21 14:43:00,77.0,60.1,29.92,ENE,68,3.1,3.4,56,0.00,,,0.00,WUHU216HW,2013-07-21 13:43:00,
2013-07-21 14:48:00,77.0,60.6,29.91,ESE,113,2.7,3.8,57,0.00,,,0.00,WUHU216HW,2013-07-21 13:48:00,
2013-07-21 14:53:00,77.4,60.9,29.91,NE,45,0.7,4.0,57,0.00,,,0.00,WUHU216HW,2013-07-21 13:53:00,
2013-07-21 14:58:00,77.6,60.6,29.91,North,0,0.7,5.6,56,0.00,,,0.00,WUHU216HW,2013-07-21 13:58:00,
2013-07-21 15:03:00,77.4,60.0,29.91,NE,45,2.5,5.6,55,0.00,,,0.00,WUHU216HW,2013-07-21 14:03:00,
2013-07-21 15:08:00,77.8,60.3,29.91,West,270,2.7,5.4,55,0.00,,,0.00,WUHU216HW,2013-07-21 14:08:00,
2013-07-21 15:13:00,77.9,60.5,29.91,ESE,113,3.6,5.4,55,0.00,,,0.00,WUHU216HW,2013-07-21 14:13:00,
2013-07-21 15:18:00,78.1,60.1,29.91,NE,45,3.4,4.7,54,0.00,,,0.00,WUHU216HW,2013-07-21 14:18:00,
2013-07-21 15:23:00,78.5,60.4,29.91,ESE,113,1.6,4.5,54,0.00,,,0.00,WUHU216HW,2013-07-21 14:23:00,
2013-07-21 15:28:00,78.7,60.1,29.91,NNE,23,2.7,4.5,53,0.00,,,0.00,WUHU216HW,2013-07-21 14:28:00,
2013-07-21 15:33:00,78.8,60.2,29.91,North,0,4.7,4.7,53,0.00,,,0.00,WUHU216HW,2013-07-21 14:33:00,
2013-07-21 15:38:00,78.8,60.2,29.90,North,0,2.0,4.7,53,0.00,,,0.00,WUHU216HW,2013-07-21 14:38:00,
2013-07-21 15:43:00,78.8,60.2,29.90,ENE,68,2.5,5.1,53,0.00,,,0.00,WUHU216HW,2013-07-21 14:43:00,
2013-07-21 15:48:00,79.0,60.4,29.90,ENE,68,2.0,5.4,53,0.00,,,0.00,WUHU216HW,2013-07-21 14:48:00,
2013-07-21 15:53:00,79.4,60.8,29.90,SE,135,0.4,5.4,53,0.00,,,0.00,WUHU216HW,2013-07-21 14:53:00,
2013-07-21 15:58:00,79.7,60.6,29.90,West,270,0.2,3.4,52,0.00,,,0.00,WUHU216HW,2013-07-21 14:58:00,
2013-07-21 16:03:00,80.5,60.7,29.90,North,0,2.2,5.1,51,0.00,,,0.00,WUHU216HW,2013-07-21 15:03:00,
2013-07-21 16:08:00,81.0,60.0,29.90,NNW,338,1.6,5.1,49,0.00,,,0.00,WUHU216HW,2013-07-21 15:08:00,
2013-07-21 16:13:00,81.2,60.2,29.90,NE,45,0.7,5.1,49,0.00,,,0.00,WUHU216HW,2013-07-21 15:13:00,
2013-07-21 16:18:00,81.7,60.7,29.89,North,0,0.7,6.7,49,0.00,,,0.00,WUHU216HW,2013-07-21 15:18:00,
2013-07-21 16:23:00,81.7,60.7,29.89,ESE,113,4.0,6.7,49,0.00,,,0.00,WUHU216HW,2013-07-21 15:23:00,
2013-07-21 16:28:00,81.2,60.8,29.89,NNE,23,0.0,5.4,50,0.00,,,0.00,WUHU216HW,2013-07-21 15:28:00,
2013-07-21 16:33:00,80.6,60.3,29.89,ESE,113,0.4,8.1,50,0.00,,,0.00,WUHU216HW,2013-07-21 15:33:00,
2013-07-21 16:38:00,80.3,59.9,29.89,North,0,1.8,8.1,50,0.00,,,0.00,WUHU216HW,2013-07-21 15:38:00,
2013-07-21 16:43:00,80.3,59.9,29.89,East,90,1.8,4.7,50,0.00,,,0.00,WUHU216HW,2013-07-21 15:43:00,
2013-07-21 16:48:00,80.3,59.9,29.89,NE,45,2.7,4.7,50,0.00,,,0.00,WUHU216HW,2013-07-21 15:48:00,
2013-07-21 16:53:00,80.3,59.9,29.89,ESE,113,1.1,4.7,50,0.00,,,0.00,WUHU216HW,2013-07-21 15:53:00,
2013-07-21 16:58:00,80.5,60.1,29.89,ENE,68,3.4,4.5,50,0.00,,,0.00,WUHU216HW,2013-07-21 15:58:00,
2013-07-21 17:03:00,80.5,60.1,29.89,ENE,68,0.7,4.7,50,0.00,,,0.00,WUHU216HW,2013-07-21 16:03:00,
2013-07-21 17:08:00,80.5,59.5,29.89,East,90,4.5,6.7,49,0.00,,,0.00,WUHU216HW,2013-07-21 16:08:00,
2013-07-21 17:13:00,80.5,59.5,29.89,ENE,68,0.4,6.7,49,0.00,,,0.00,WUHU216HW,2013-07-21 16:13:00,
2013-07-21 17:18:00,80.3,59.4,29.88,NNE,23,1.1,5.1,49,0.00,,,0.00,WUHU216HW,2013-07-21 16:18:00,
2013-07-21 17:23:00,80.5,60.1,29.88,East,90,0.0,4.0,50,0.00,,,0.00,WUHU216HW,2013-07-21 16:23:00,
2013-07-21 17:28:00,80.3,59.9,29.88,ENE,68,4.3,6.3,50,0.00,,,0.00,WUHU216HW,2013-07-21 16:28:00,
2013-07-21 17:33:00,80.3,59.9,29.88,ENE,68,0.9,6.3,50,0.00,,,0.00,WUHU216HW,2013-07-21 16:33:00,
2013-07-21 17:38:00,80.3,59.9,29.88,ENE,68,1.6,6.0,50,0.00,,,0.00,WUHU216HW,2013-07-21 16:38:00,
2013-07-21 17:43:00,80.3,59.9,29.88,East,90,4.9,4.9,50,0.00,,,0.00,WUHU216HW,2013-07-21 16:43:00,
2013-07-21 17:48:00,80.5,60.1,29.88,ENE,68,5.4,5.4,50,0.00,,,0.00,WUHU216HW,2013-07-21 16:48:00,
2013-07-21 17:53:00,80.6,60.3,29.88,NNW,338,6.7,6.7,50,0.00,,,0.00,WUHU216HW,2013-07-21 16:53:00,
2013-07-21 17:58:00,80.6,60.3,29.88,East,90,1.8,6.9,50,0.00,,,0.00,WUHU216HW,2013-07-21 16:58:00,
2013-07-21 18:03:00,80.5,60.7,29.87,East,90,1.8,6.9,51,0.00,,,0.00,WUHU216HW,2013-07-21 17:03:00,
2013-07-21 18:08:00,80.5,60.1,29.87,ESE,113,1.1,5.6,50,0.00,,,0.00,WUHU216HW,2013-07-21 17:08:00,
2013-07-21 18:13:00,80.3,60.5,29.87,East,90,1.3,7.2,51,0.00,,,0.00,WUHU216HW,2013-07-21 17:13:00,
2013-07-21 18:18:00,80.5,60.1,29.87,East,90,1.8,7.2,50,0.00,,,0.00,WUHU216HW,2013-07-21 17:18:00,
2013-07-21 18:23:00,80.3,60.5,29.87,ENE,68,2.5,5.6,51,0.00,,,0.00,WUHU216HW,2013-07-21 17:23:00,
2013-07-21 18:28:00,80.3,60.5,29.87,ENE,68,2.7,5.6,51,0.00,,,0.00,WUHU216HW,2013-07-21 17:28:00,
2013-07-21 18:33:00,80.3,60.5,29.87,NE,45,2.5,5.6,51,0.00,,,0.00,WUHU216HW,2013-07-21 17:33:00,
2013-07-21 18:38:00,80.3,60.5,29.86,NE,45,1.3,5.4,51,0.00,,,0.00,WUHU216HW,2013-07-21 17:38:00,
2013-07-21 18:43:00,80.3,60.5,29.86,East,90,3.8,5.1,51,0.00,,,0.00,WUHU216HW,2013-07-21 17:43:00,
2013-07-21 18:48:00,80.1,60.3,29.86,NE,45,4.0,5.6,51,0.00,,,0.00,WUHU216HW,2013-07-21 17:48:00,
2013-07-21 18:53:00,79.9,60.2,29.86,ENE,68,4.5,5.6,51,0.00,,,0.00,WUHU216HW,2013-07-21 17:53:00,
2013-07-21 18:58:00,79.9,60.2,29.86,NNE,23,2.7,4.9,51,0.00,,,0.00,WUHU216HW,2013-07-21 17:58:00,
2013-07-21 19:03:00,79.9,60.7,29.86,NE,45,3.1,5.4,52,0.00,,,0.00,WUHU216HW,2013-07-21 18:03:00,
2013-07-21 19:08:00,79.7,60.6,29.86,East,90,2.5,5.8,52,0.00,,,0.00,WUHU216HW,2013-07-21 18:08:00,
2013-07-21 19:13:00,79.6,59.9,29.86,WNW,293,0.4,5.8,51,0.00,,,0.00,WUHU216HW,2013-07-21 18:13:00,
2013-07-21 19:18:00,79.6,59.9,29.86,NE,45,4.5,4.7,51,0.00,,,0.00,WUHU216HW,2013-07-21 18:18:00,
2013-07-21 19:23:00,79.6,60.4,29.86,NNE,23,1.1,4.5,52,0.00,,,0.00,WUHU216HW,2013-07-21 18:23:00,
2013-07-21 19:28:00,79.7,60.6,29.86,NNE,23,1.3,4.5,52,0.00,,,0.00,WUHU216HW,2013-07-21 18:28:00,
2013-07-21 19:33:00,79.6,60.4,29.86,ESE,113,2.2,3.1,52,0.00,,,0.00,WUHU216HW,2013-07-21 18:33:00,
2013-07-21 19:38:00,79.4,60.2,29.86,ENE,68,1.8,5.1,52,0.00,,,0.00,WUHU216HW,2013-07-21 18:38:00,
2013-07-21 19:43:00,79.4,60.8,29.87,ENE,68,1.1,5.1,53,0.00,,,0.00,WUHU216HW,2013-07-21 18:43:00,
2013-07-21 19:48:00,79.2,61.1,29.86,ESE,113,0.9,3.4,54,0.00,,,0.00,WUHU216HW,2013-07-21 18:48:00,
2013-07-21 19:53:00,79.0,61.5,29.87,East,90,0.9,4.5,55,0.00,,,0.00,WUHU216HW,2013-07-21 18:53:00,
2013-07-21 19:58:00,78.8,61.3,29.86,NE,45,1.8,5.1,55,0.00,,,0.00,WUHU216HW,2013-07-21 18:58:00,
2013-07-21 20:03:00,78.5,61.5,29.87,East,90,5.6,5.6,56,0.00,,,0.00,WUHU216HW,2013-07-21 19:03:00,
2013-07-21 20:08:00,78.3,61.8,29.86,NNE,23,3.4,6.3,57,0.00,,,0.00,WUHU216HW,2013-07-21 19:08:00,
2013-07-21 20:13:00,78.1,61.7,29.86,ESE,113,3.1,6.3,57,0.00,,,0.00,WUHU216HW,2013-07-21 19:13:00,
2013-07-21 20:18:00,77.9,61.5,29.87,NE,45,2.9,4.9,57,0.00,,,0.00,WUHU216HW,2013-07-21 19:18:00,
2013-07-21 20:23:00,77.8,61.3,29.86,ENE,68,3.1,4.9,57,0.00,,,0.00,WUHU216HW,2013-07-21 19:23:00,
2013-07-21 20:28:00,77.6,61.7,29.86,ENE,68,2.2,3.4,58,0.00,,,0.00,WUHU216HW,2013-07-21 19:28:00,
2013-07-21 20:33:00,77.2,61.7,29.87,East,90,1.8,5.4,59,0.00,,,0.00,WUHU216HW,2013-07-21 19:33:00,
2013-07-21 20:38:00,76.9,61.9,29.87,ENE,68,4.0,6.3,60,0.00,,,0.00,WUHU216HW,2013-07-21 19:38:00,
2013-07-21 20:43:00,76.5,62.1,29.87,East,90,2.2,6.9,61,0.00,,,0.00,WUHU216HW,2013-07-21 19:43:00,
2013-07-21 20:48:00,76.1,61.8,29.87,ENE,68,2.5,6.9,61,0.00,,,0.00,WUHU216HW,2013-07-21 19:48:00,
2013-07-21 20:53:00,76.0,62.0,29.87,ESE,113,4.7,5.4,62,0.00,,,0.00,WUHU216HW,2013-07-21 19:53:00,
2013-07-21 20:58:00,75.6,61.7,29.88,ESE,113,1.8,4.7,62,0.00,,,0.00,WUHU216HW,2013-07-21 19:58:00,
2013-07-21 21:03:00,75.4,61.9,29.88,East,90,0.9,5.6,63,0.00,,,0.00,WUHU216HW,2013-07-21 20:03:00,
2013-07-21 21:08:00,75.2,61.7,29.88,East,90,2.2,5.6,63,0.00,,,0.00,WUHU216HW,2013-07-21 20:08:00,
2013-07-21 21:13:00,75.1,61.6,29.88,NE,45,1.1,4.0,63,0.00,,,0.00,WUHU216HW,2013-07-21 20:13:00,
2013-07-21 21:18:00,74.9,61.8,29.88,NNE,23,2.5,3.4,64,0.00,,,0.00,WUHU216HW,2013-07-21 20:18:00,
2013-07-21 21:23:00,74.7,61.7,29.89,NE,45,4.5,4.5,64,0.00,,,0.00,WUHU216HW,2013-07-21 20:23:00,
2013-07-21 21:28:00,74.5,61.9,29.89,ENE,68,2.9,4.9,65,0.00,,,0.00,WUHU216HW,2013-07-21 20:28:00,
2013-07-21 21:33:00,74.3,61.8,29.89,East,90,2.0,5.6,65,0.00,,,0.00,WUHU216HW,2013-07-21 20:33:00,
2013-07-21 21:38:00,74.2,61.7,29.89,ENE,68,2.0,5.6,65,0.00,,,0.00,WUHU216HW,2013-07-21 20:38:00,
2013-07-21 21:43:00,74.0,61.5,29.89,ENE,68,1.8,2.5,65,0.00,,,0.00,WUHU216HW,2013-07-21 20:43:00,
2013-07-21 21:48:00,73.8,61.8,29.89,East,90,2.7,4.0,66,0.00,,,0.00,WUHU216HW,2013-07-21 20:48:00,
2013-07-21 21:53:00,73.6,61.6,29.89,SE,135,1.6,4.0,66,0.00,,,0.00,WUHU216HW,2013-07-21 20:53:00,
2013-07-21 21:58:00,73.4,61.4,29.89,NE,45,1.1,3.1,66,0.00,,,0.00,WUHU216HW,2013-07-21 20:58:00,
2013-07-21 22:03:00,73.4,61.4,29.89,NE,45,1.1,1.6,66,0.00,,,0.00,WUHU216HW,2013-07-21 21:03:00,
2013-07-21 22:08:00,73.1,61.5,29.89,ENE,68,0.7,1.6,67,0.00,,,0.00,WUHU216HW,2013-07-21 21:08:00,
2013-07-21 22:13:00,73.1,61.0,29.89,NE,45,0.7,2.7,66,0.00,,,0.00,WUHU216HW,2013-07-21 21:13:00,
2013-07-21 22:14:00,73.1,61.5,29.89,ENE,68,1.1,3.1,67,0.00,,,0.00,WUHU216HW,2013-07-21 21:14:00,
2013-07-21 22:19:00,72.7,61.1,29.89,East,90,2.2,3.1,67,0.00,,,0.00,WUHU216HW,2013-07-21 21:19:00,
2013-07-21 22:24:00,72.7,61.1,29.89,NNE,23,1.3,3.4,67,0.00,,,0.00,WUHU216HW,2013-07-21 21:24:00,
2013-07-21 22:29:00,72.4,61.2,29.89,ENE,68,0.7,3.4,68,0.00,,,0.00,WUHU216HW,2013-07-21 21:29:00,
2013-07-21 22:34:00,72.4,61.2,29.89,ESE,113,1.1,3.4,68,0.00,,,0.00,WUHU216HW,2013-07-21 21:34:00,
2013-07-21 22:40:00,72.2,61.0,29.89,ENE,68,2.5,3.8,68,0.00,,,0.00,WUHU216HW,2013-07-21 21:40:00,
2013-07-21 22:45:00,72.0,61.3,29.89,ENE,68,0.7,3.8,69,0.00,,,0.00,WUHU216HW,2013-07-21 21:45:00,
2013-07-21 22:50:00,72.0,61.3,29.88,ENE,68,1.8,3.4,69,0.00,,,0.00,WUHU216HW,2013-07-21 21:50:00,
2013-07-21 22:55:00,71.8,61.1,29.89,NNE,23,0.4,2.7,69,0.00,,,0.00,WUHU216HW,2013-07-21 21:55:00,
2013-07-21 23:00:00,71.6,60.5,29.89,NNE,23,0.0,2.5,68,0.00,,,0.00,WUHU216HW,2013-07-21 22:00:00,
2013-07-21 23:05:00,71.6,60.5,29.89,ENE,68,0.4,2.0,68,0.00,,,0.00,WUHU216HW,2013-07-21 22:05:00,
2013-07-21 23:10:00,71.6,60.5,29.89,ENE,68,0.0,2.0,68,0.00,,,0.00,WUHU216HW,2013-07-21 22:10:00,
2013-07-21 23:15:00,71.5,60.3,29.89,East,90,0.7,1.1,68,0.00,,,0.00,WUHU216HW,2013-07-21 22:15:00,
2013-07-21 23:20:00,71.3,60.6,29.89,NE,45,0.4,3.4,69,0.00,,,0.00,WUHU216HW,2013-07-21 22:20:00,
2013-07-21 23:25:00,71.1,60.4,29.89,ENE,68,0.4,3.4,69,0.00,,,0.00,WUHU216HW,2013-07-21 22:25:00,
2013-07-21 23:30:00,70.9,60.2,29.89,ENE,68,0.4,2.2,69,0.00,,,0.00,WUHU216HW,2013-07-21 22:30:00,
2013-07-21 23:35:00,70.9,60.2,29.89,NE,45,0.2,2.0,69,0.00,,,0.00,WUHU216HW,2013-07-21 22:35:00,
2013-07-21 23:40:00,70.7,60.0,29.89,ENE,68,0.0,1.8,69,0.00,,,0.00,WUHU216HW,2013-07-21 22:40:00,
2013-07-21 23:45:00,70.6,60.3,29.89,ENE,68,0.2,1.6,70,0.00,,,0.00,WUHU216HW,2013-07-21 22:45:00,
2013-07-21 23:50:00,70.4,60.1,29.89,NE,45,0.4,0.9,70,0.00,,,0.00,WUHU216HW,2013-07-21 22:50:00,
2013-07-21 23:55:00,70.2,59.9,29.89,ENE,68,0.9,0.9,70,0.00,,,0.00,WUHU216HW,2013-07-21 22:55:00,